• Join FlightAware (Why Join?)
  • Login
  • US Flag 
12:25AM EDT


 

Airport Tracker/Info


-or-


 

Live Flight TrackerFlight Track Log ✈ SKW5550 ✈ 17-Oct-2013 ✈ KDEN - KSMF

Flight Track Log - Related Links

Times and Time Zones

All times are in EDT time to prevent confusion due to time zone crossing. See the SKW5550 flight status page for this flight to view local times or setup timezone preferences in your user account.

Time Position Orientation Groundspeed Altitude Reporting Facility
EDT Latitude Longitude Course Direction KTS MPH feet Rate Location/Type
05:14PM 39.9333 -104.7000 346° North 201 231 7,100  Level Denver TRACON
05:15PM 39.9833 -104.7167 346° North 250 288 8,600 2,100 Climbing Denver TRACON
05:16PM 40.0167 -104.8167 294° West 279 321 11,100 2,340 Climbing Denver TRACON
05:17PM 40.0167 -104.9167 270° West 282 325 13,300 2,340 Climbing Denver TRACON
05:18PM 40.0000 -105.0167 258° West 285 328 15,800 1,980 Climbing Denver TRACON
05:20PM 39.9997 -105.1647 270° West 293 337 18,200 1,800 Climbing Denver Center
05:21PM 39.9939 -105.2808 266° West 299 344 20,300 1,620 Climbing Denver Center
05:22PM 39.9883 -105.3889 266° West 298 343 21,600 1,380 Climbing Denver Center
05:23PM 39.9831 -105.5081 267° West 301 346 23,200 1,200 Climbing Denver Center
05:24PM 39.9781 -105.6050 266° West 307 353 24,200 1,080 Climbing Denver Center
05:25PM 39.9717 -105.7425 267° West 316 364 25,500 960 Climbing Denver Center
05:26PM 39.9708 -105.8550 269° West 313 360 26,300 720 Climbing Denver Center
05:27PM 39.9775 -105.9714 274° West 321 369 27,100 720 Climbing Denver Center
05:28PM 39.9839 -106.0900 274° West 327 376 27,900 720 Climbing Denver Center
05:29PM 39.9892 -106.2092 273° West 330 380 28,600 720 Climbing Denver Center
05:30PM 39.9986 -106.3553 275° West 337 388 29,500 720 Climbing Denver Center
05:31PM 40.0075 -106.4767 275° West 338 389 30,100 480 Climbing Denver Center
05:32PM 40.0258 -106.5908 282° West 341 392 30,600 420 Climbing Denver Center
05:33PM 40.0464 -106.7275 281° West 345 397 31,000 420 Climbing Denver Center
05:34PM 40.0656 -106.8458 282° West 348 400 31,500 480 Climbing Denver Center
05:35PM 40.0858 -106.9831 281° West 346 398 32,000 240 Climbing Denver Center
05:36PM 40.1050 -107.1028 282° West 350 403 32,000  Level Denver Center
05:37PM 40.1256 -107.2469 281° West 361 415 32,000  Level Denver Center
05:38PM 40.1444 -107.3742 281° West 370 426 32,000  Level Denver Center
05:39PM 40.1672 -107.5261 281° West 380 437 32,000  Level Denver Center
05:40PM 40.1869 -107.6575 281° West 385 443 32,000  Level Denver Center
05:41PM 40.2086 -107.8136 280° West 390 449 32,000  Level Denver Center
05:43PM 40.2272 -107.9447 281° West 386 444 32,000  Level Denver Center
05:44PM 40.2486 -108.0961 281° West 382 440 32,000  Level Denver Center
05:45PM 40.2675 -108.2244 281° West 378 435 32,000  Level Denver Center
05:46PM 40.2881 -108.3736 280° West 375 432 32,000  Level Denver Center
05:47PM 40.3053 -108.4994 280° West 370 426 32,000  Level Denver Center
05:48PM 40.3250 -108.6453 280° West 366 421 32,000  Level Denver Center
05:49PM 40.3419 -108.7703 280° West 364 419 32,000  Level Denver Center
05:50PM 40.3611 -108.9142 280° West 362 417 32,000  Level Denver Center
05:51PM 40.3775 -109.0372 280° West 360 414 32,000  Level Denver Center
05:52PM 40.3950 -109.1819 279° West 360 414 32,000  Level Denver Center
05:53PM 40.4122 -109.3039 281° West 357 411 32,000  Level Denver Center
05:54PM 40.4275 -109.4278 279° West 358 412 32,000  Level Denver Center
05:55PM 40.4514 -109.6117 280° West 356 410 32,000  Level Salt Lake Center
05:56PM 40.4661 -109.7347 279° West 356 410 32,000  Level Salt Lake Center
05:57PM 40.4853 -109.8786 280° West 359 413 32,000  Level Salt Lake Center
05:58PM 40.5006 -110.0014 279° West 357 411 32,000  Level Salt Lake Center
05:59PM 40.5142 -110.1450 277° West 356 410 32,000  Level Salt Lake Center
06:00PM 40.5267 -110.2672 278° West 353 406 32,000  Level Salt Lake Center
06:01PM 40.5408 -110.4114 277° West 357 411 32,000  Level Salt Lake Center
06:02PM 40.5522 -110.5336 277° West 354 407 32,000  Level Salt Lake Center
06:03PM 40.5647 -110.6686 277° West 354 407 32,000  Level Salt Lake Center
06:05PM 40.5764 -110.7986 277° West 357 411 32,000  Level Salt Lake Center
06:06PM 40.5878 -110.9294 277° West 360 414 32,000  Level Salt Lake Center
06:07PM 40.5994 -111.0614 277° West 363 418 32,000  Level Salt Lake Center
06:08PM 40.6117 -111.1953 277° West 366 421 32,000  Level Salt Lake Center
06:09PM 40.6258 -111.3542 277° West 365 420 32,000  Level Salt Lake Center
06:10PM 40.6372 -111.4881 276° West 366 421 32,000  Level Salt Lake Center
06:11PM 40.6483 -111.6211 276° West 365 420 32,000  Level Salt Lake Center
06:12PM 40.6592 -111.7561 276° West 370 426 32,000  Level Salt Lake Center
06:13PM 40.6708 -111.8914 277° West 368 423 32,000  Level Salt Lake Center
06:14PM 40.6822 -112.0269 276° West 369 425 32,000  Level Salt Lake Center
06:15PM 40.6925 -112.1622 276° West 371 427 32,000  Level Salt Lake Center
06:16PM 40.7050 -112.3250 276° West 372 428 32,000  Level Salt Lake Center
06:17PM 40.7161 -112.4608 276° West 371 427 32,000  Level Salt Lake Center
06:18PM 40.7222 -112.5978 273° West 375 432 32,000  Level Salt Lake Center
06:19PM 40.7228 -112.7361 270° West 378 435 32,000  Level Salt Lake Center
06:20PM 40.7242 -112.8742 271° West 378 435 32,000  Level Salt Lake Center
06:21PM 40.7242 -113.0114 270° West 376 433 32,000  Level Salt Lake Center
06:22PM 40.7250 -113.1508 270° West 379 436 32,000  Level Salt Lake Center
06:23PM 40.7269 -113.3169 271° West 377 434 32,000  Level Salt Lake Center
06:24PM 40.7256 -113.4558 269° West 379 436 32,000  Level Salt Lake Center
06:25PM 40.7256 -113.5969 270° West 385 443 32,000  Level Salt Lake Center
06:26PM 40.7269 -113.7378 271° West 387 445 32,000  Level Salt Lake Center
06:27PM 40.7222 -113.8800 268° West 389 448 32,000  Level Salt Lake Center
06:28PM 40.7181 -114.0233 268° West 393 452 32,000  Level Salt Lake Center
06:29PM 40.7111 -114.1958 267° West 394 453 32,000  Level Salt Lake Center
06:30PM 40.7072 -114.3414 268° West 397 457 32,000  Level Salt Lake Center
06:31PM 40.7017 -114.4878 267° West 400 460 32,000  Level Salt Lake Center
06:32PM 40.6981 -114.6347 268° West 403 464 32,000  Level Salt Lake Center
06:33PM 40.6908 -114.7800 266° West 400 460 32,000  Level Salt Lake Center
06:34PM 40.6819 -114.9456 266° West 400 460 32,000  Level Salt Lake Center
06:36PM 40.6758 -115.0858 267° West 401 461 32,000  Level Salt Lake Center
06:37PM 40.6647 -115.2481 265° West 399 459 32,000  Level Salt Lake Center
06:38PM 40.6567 -115.3869 266° West 398 458 32,000  Level Salt Lake Center
06:39PM 40.6486 -115.5503 266° West 399 459 32,000  Level Salt Lake Center
06:40PM 40.6433 -115.6908 267° West 402 463 32,000  Level Salt Lake Center
06:41PM 40.6350 -115.8536 266° West 400 460 32,000  Level Salt Lake Center
06:42PM 40.6267 -115.9950 266° West 403 464 32,000  Level Salt Lake Center
06:43PM 40.6186 -116.1358 266° West 404 465 32,000  Level Salt Lake Center
06:44PM 40.6086 -116.3017 266° West 406 467 32,000  Level Salt Lake Center
06:45PM 40.5994 -116.4414 265° West 402 463 32,000  Level Salt Lake Center
06:46PM 40.5892 -116.6053 265° West 404 465 32,000  Level Salt Lake Center
06:47PM 40.5811 -116.7450 266° West 404 465 32,000  Level Salt Lake Center
06:48PM 40.5692 -116.9069 265° West 405 466 32,000  Level Salt Lake Center
06:49PM 40.5192 -117.0614 247° West 417 480 32,000  Level Salt Lake Center
06:50PM 40.4711 -117.1911 244° Southwest 418 481 32,000  Level Salt Lake Center
06:51PM 40.4150 -117.3447 244° Southwest 419 482 32,000  Level Salt Lake Center
06:52PM 40.3664 -117.4758 244° Southwest 420 483 32,000  Level Salt Lake Center
06:54PM 40.2858 -117.6967 245° Southwest 424 488 32,000  Level Oakland Center
06:54PM 40.2600 -117.7628 243° Southwest 423 487 32,000  Level Salt Lake Center
06:55PM 40.2100 -117.8939 243° Southwest 422 486 32,000  Level Salt Lake Center
06:56PM 40.1875 -117.9589 246° West 418 481 32,000  Level Oakland Center
06:57PM 40.1253 -118.1211 243° Southwest 418 481 32,000  Level Oakland Center
06:58PM 40.0750 -118.2567 244° Southwest 415 478 32,000  Level Oakland Center
06:59PM 40.0228 -118.3919 243° Southwest 418 481 32,000  Level Oakland Center
07:00PM 39.9719 -118.5281 244° Southwest 419 482 32,000  Level Oakland Center
07:01PM 39.9200 -118.6633 243° Southwest 421 484 32,000  Level Oakland Center
07:02PM 39.8675 -118.7978 243° Southwest 419 482 32,000 -120 Level Oakland Center
07:03PM 39.8147 -118.9336 243° Southwest 424 488 31,800 -960 Descending Oakland Center
07:04PM 39.7492 -119.1022 243° Southwest 437 503 30,100 -1,380 Descending Oakland Center
07:05PM 39.6928 -119.2453 243° Southwest 446 513 29,000 -1,080 Descending Oakland Center
07:06PM 39.6383 -119.3817 243° Southwest 432 497 27,900 -1,080 Descending Oakland Center
07:07PM 39.5914 -119.5056 244° Southwest 391 450 26,800 -1,080 Descending Oakland Center
07:08PM 39.5428 -119.6275 243° Southwest 382 440 25,700 -1,080 Descending Oakland Center
07:09PM 39.4825 -119.7453 236° Southwest 392 451 24,600 -1,200 Descending Oakland Center
07:10PM 39.3997 -119.8844 232° Southwest 408 470 23,300 -1,200 Descending Oakland Center
07:11PM 39.3342 -120.0003 234° Southwest 400 460 22,200 -1,080 Descending Oakland Center
07:12PM 39.2694 -120.1119 233° Southwest 391 450 21,100 -1,140 Descending Oakland Center
07:13PM 39.2061 -120.2247 234° Southwest 377 434 19,900 -1,140 Descending Oakland Center
07:14PM 39.1619 -120.3439 244° Southwest 372 428 18,800 -1,080 Descending Oakland Center
07:15PM 39.1317 -120.4622 252° West 352 405 17,700 -1,080 Descending Oakland Center
07:16PM 39.1031 -120.5800 253° West 346 398 16,600 -900 Descending Oakland Center
07:17PM 39.0725 -120.6939 251° West 338 389 15,900 -1,080 Descending Oakland Center
07:18PM 39.0444 -120.8047 252° West 329 379 14,500 -1,500 Descending Oakland Center
07:19PM 39.0147 -120.9167 251° West 332 382 12,900 -1,680 Descending Oakland Center
07:20PM 38.9792 -121.0536 252° West 337 388 11,100 -1,680 Descending Oakland Center
07:21PM 38.9511 -121.1625 252° West 326 375 9,500 -1,500 Descending Oakland Center
07:22PM 38.9167 -121.2833 250° West 296 341 7,800 -1,380 Descending Northern Cal TRACON
07:23PM 38.9000 -121.3833 258° West 291 335 6,500 -1,500 Descending Northern Cal TRACON
07:24PM 38.8833 -121.4833 258° West 275 316 4,800 -1,200 Descending Northern Cal TRACON
07:25PM 38.8667 -121.5667 256° West 232 267 4,100 -1,200 Descending Northern Cal TRACON
07:26PM 38.8167 -121.5833 195° South 194 223 2,400 -1,440 Descending Northern Cal TRACON
07:27PM 38.7667 -121.5833 180° South 155 178 1,300 -960 Descending Northern Cal TRACON
07:28PM 38.7333 -121.5833 180° South 147 169 500 -840 Descending Northern Cal TRACON
07:31PM 38.6954 -121.5908 218° Southwest  Level Estimated
07:38PM 38.6954 -121.5908 218° Southwest  Level Estimated